Time;durP1;ratioP1;P1;durP2;ratioP2;P2;SDS_P1;SDS_P2;PMS_P1;PMS_P2;Temp;Humidity;BMP_temperature;BMP_pressure;BME280_temperature;BME280_humidity;BME280_pressure;Samples;Min_cycle;Max_cycle;Signal;HPM_P1;HPM_P2
2023/02/02 00:00:41;;;;;;;;;;;7.70;91.40;;;;;;5094532;28;20335;-28
2023/02/02 00:03:07;;;;;;;;;;;7.70;91.40;;;;;;5094558;28;19970;-32
2023/02/02 00:05:33;;;;;;;;;;;7.80;91.50;;;;;;5094719;28;20566;-29
2023/02/02 00:07:58;;;;;;;;;;;7.80;91.50;;;;;;5094708;28;19908;-41
2023/02/02 00:10:24;;;;;;;;;;;7.80;91.50;;;;;;5094299;28;20328;-31
2023/02/02 00:12:49;;;;;;;;;;;7.80;91.50;;;;;;5094265;28;19908;-30
2023/02/02 00:15:15;;;;;;;;;;;7.80;91.60;;;;;;5094293;28;19913;-30
2023/02/02 00:17:40;;;;;;;;;;;7.80;91.50;;;;;;5094222;28;20387;-35
2023/02/02 00:20:06;;;;;;;;;;;7.90;91.50;;;;;;5094077;28;20342;-31
2023/02/02 00:22:31;;;;;;;;;;;7.90;91.60;;;;;;5093968;28;19969;-31
2023/02/02 00:24:57;;;;;;;;;;;7.90;91.60;;;;;;5094105;28;20332;-29
2023/02/02 00:27:22;;;;;;;;;;;7.90;91.60;;;;;;5093975;28;20364;-35
2023/02/02 00:29:48;;;;;;;;;;;7.90;91.70;;;;;;5094197;28;20050;-29
2023/02/02 00:32:13;;;;;;;;;;;7.90;91.70;;;;;;5092798;28;20317;-31
2023/02/02 00:34:39;;;;;;;;;;;8.00;91.70;;;;;;5094079;28;19914;-29
2023/02/02 00:37:04;;;;;;;;;;;7.90;91.70;;;;;;5093738;28;20425;-32
2023/02/02 00:39:30;;;;;;;;;;;8.00;91.70;;;;;;5092966;28;19966;-30
2023/02/02 00:41:55;;;;;;;;;;;8.00;92.00;;;;;;5093707;28;19958;-32
2023/02/02 00:47:05;;;;;;;;;;;8.00;92.00;;;;;;5093609;28;19915;-30
2023/02/02 00:49:30;;;;;;;;;;;7.90;91.90;;;;;;5093598;28;19908;-31
2023/02/02 00:51:56;;;;;;;;;;;8.00;92.00;;;;;;5093773;28;20315;-34
2023/02/02 00:54:21;;;;;;;;;;;7.90;91.90;;;;;;5093495;28;19912;-30
2023/02/02 00:56:47;;;;;;;;;;;7.90;91.90;;;;;;5093405;28;19913;-31
2023/02/02 00:59:12;;;;;;;;;;;7.90;92.00;;;;;;5093756;28;20272;-35
2023/02/02 01:01:38;;;;;;;;;;;7.90;91.90;;;;;;5093398;28;20363;-32
2023/02/02 01:04:04;;;;;;;;;;;7.90;92.00;;;;;;5093192;28;20311;-31
2023/02/02 01:06:29;;;;;;;;;;;7.90;92.00;;;;;;5093222;28;19908;-34
2023/02/02 01:08:55;;;;;;;;;;;7.80;91.90;;;;;;5091872;28;19908;-30
2023/02/02 01:11:20;;;;;;;;;;;7.90;92.00;;;;;;5093165;28;19908;-27
2023/02/02 01:13:46;;;;;;;;;;;7.90;91.90;;;;;;5093139;28;19951;-29
2023/02/02 01:16:11;;;;;;;;;;;7.90;91.90;;;;;;5093039;28;19915;-32
2023/02/02 01:18:37;;;;;;;;;;;7.90;91.90;;;;;;5093507;28;19916;-34
2023/02/02 01:21:04;;;;;;;;;;;7.90;91.90;;;;;;5091623;28;20311;-28
2023/02/02 01:23:30;;;;;;;;;;;8.00;91.90;;;;;;5092823;28;19920;-29
2023/02/02 01:25:57;;;;;;;;;;;8.00;91.90;;;;;;5092828;28;19908;-35
2023/02/02 01:28:23;;;;;;;;;;;8.00;91.80;;;;;;5093190;28;19908;-28
2023/02/02 01:30:48;;;;;;;;;;;8.00;91.90;;;;;;5093022;28;19915;-27
2023/02/02 01:33:14;;;;;;;;;;;8.00;91.90;;;;;;5092728;28;19909;-28
2023/02/02 01:35:45;;;;;;;;;;;8.00;91.90;;;;;;5092771;28;20268;-29
2023/02/02 01:38:10;;;;;;;;;;;8.00;91.80;;;;;;5092651;28;19908;-30
2023/02/02 01:40:35;;;;;;;;;;;8.00;91.90;;;;;;5093162;28;19915;-28
2023/02/02 01:43:01;;;;;;;;;;;8.00;92.00;;;;;;5092325;28;19966;-31
2023/02/02 01:45:27;;;;;;;;;;;7.90;91.90;;;;;;5092983;28;19912;-28
2023/02/02 01:47:55;;;;;;;;;;;7.90;91.90;;;;;;5091792;28;19939;-34
2023/02/02 01:50:22;;;;;;;;;;;7.90;91.90;;;;;;5093234;28;19908;-32
2023/02/02 01:52:48;;;;;;;;;;;7.90;91.90;;;;;;5092885;28;19912;-32
2023/02/02 01:55:15;;;;;;;;;;;7.90;91.90;;;;;;5093030;28;19908;-35
2023/02/02 01:58:01;;;;;;;;;;;7.90;91.90;;;;;;5092885;28;19915;-32
2023/02/02 02:00:26;;;;;;;;;;;7.90;91.90;;;;;;5092769;28;19908;-28
2023/02/02 02:03:05;;;;;;;;;;;7.90;91.90;;;;;;5092636;28;20409;-31
2023/02/02 02:05:50;;;;;;;;;;;7.90;91.90;;;;;;5092330;28;19915;-33
2023/02/02 02:08:22;;;;;;;;;;;7.90;91.90;;;;;;5084610;28;19908;-29
2023/02/02 02:10:48;;;;;;;;;;;7.90;91.90;;;;;;5092242;28;19912;-32
2023/02/02 02:13:13;;;;;;;;;;;7.90;92.20;;;;;;5092157;28;19974;-28
2023/02/02 02:18:44;;;;;;;;;;;7.90;91.90;;;;;;5092128;28;20437;-29
2023/02/02 02:27:12;;;;;;;;;;;7.90;91.90;;;;;;5092422;28;19953;-30
2023/02/02 02:29:37;;;;;;;;;;;7.90;91.90;;;;;;5092068;28;19912;-30
2023/02/02 02:32:03;;;;;;;;;;;7.80;91.90;;;;;;5092085;28;19908;-32
2023/02/02 02:34:55;;;;;;;;;;;7.80;91.90;;;;;;5092106;28;20356;-28
2023/02/02 02:37:26;;;;;;;;;;;7.80;91.90;;;;;;5089979;28;20015;-33
2023/02/02 02:39:51;;;;;;;;;;;7.80;91.90;;;;;;5091973;28;19909;-35
2023/02/02 02:42:22;;;;;;;;;;;7.70;91.90;;;;;;5091932;28;19912;-29
2023/02/02 02:44:48;;;;;;;;;;;7.70;91.90;;;;;;5091929;28;19912;-32
2023/02/02 02:47:14;;;;;;;;;;;7.70;91.90;;;;;;5091892;28;19915;-32
2023/02/02 02:49:43;;;;;;;;;;;7.60;91.90;;;;;;5092040;28;19908;-31
2023/02/02 02:52:09;;;;;;;;;;;7.60;92.00;;;;;;5091894;28;19919;-29
2023/02/02 02:54:36;;;;;;;;;;;7.60;92.00;;;;;;5091936;28;20376;-28
2023/02/02 02:57:08;;;;;;;;;;;7.60;92.00;;;;;;5095505;28;19908;-34
2023/02/02 02:59:53;;;;;;;;;;;7.60;92.00;;;;;;5095809;28;19908;-30
2023/02/02 03:02:42;;;;;;;;;;;7.60;92.10;;;;;;5095953;28;19908;-33
2023/02/02 03:05:22;;;;;;;;;;;7.60;92.10;;;;;;5089906;28;19915;-32
2023/02/02 03:07:50;;;;;;;;;;;7.60;92.10;;;;;;5095526;28;19912;-27
2023/02/02 03:10:18;;;;;;;;;;;7.60;92.10;;;;;;5095442;28;19931;-31
2023/02/02 03:12:48;;;;;;;;;;;7.70;92.10;;;;;;5094121;28;19908;-29
2023/02/02 03:15:14;;;;;;;;;;;7.70;92.10;;;;;;5095331;28;19995;-40
2023/02/02 03:17:40;;;;;;;;;;;7.70;92.10;;;;;;5095493;28;20291;-33
2023/02/02 03:20:06;;;;;;;;;;;7.70;92.10;;;;;;5095214;28;20395;-28
2023/02/02 03:22:31;;;;;;;;;;;7.70;92.10;;;;;;5094894;28;19967;-34
2023/02/02 03:24:58;;;;;;;;;;;7.70;92.10;;;;;;5094869;28;19961;-31
2023/02/02 03:27:24;;;;;;;;;;;7.70;92.10;;;;;;5093642;28;19908;-31
2023/02/02 03:29:50;;;;;;;;;;;7.70;92.10;;;;;;5094979;28;20392;-33
2023/02/02 03:32:15;;;;;;;;;;;7.70;92.10;;;;;;5094830;28;19912;-35
2023/02/02 03:34:41;;;;;;;;;;;7.70;92.10;;;;;;5094723;28;19947;-31
2023/02/02 03:37:06;;;;;;;;;;;7.80;92.10;;;;;;5094594;28;19909;-34
2023/02/02 03:39:32;;;;;;;;;;;7.70;92.10;;;;;;5094664;28;20290;-32
2023/02/02 03:41:57;;;;;;;;;;;7.80;92.10;;;;;;5094528;28;19919;-29
2023/02/02 03:44:22;;;;;;;;;;;7.80;92.10;;;;;;5094527;28;19912;-33
2023/02/02 03:46:51;;;;;;;;;;;7.80;92.20;;;;;;5094845;28;19909;-31
2023/02/02 03:49:17;;;;;;;;;;;7.80;92.10;;;;;;5094434;28;19915;-30
2023/02/02 03:51:43;;;;;;;;;;;7.80;92.40;;;;;;5094508;28;20368;-34
2023/02/02 03:54:08;;;;;;;;;;;7.80;92.10;;;;;;5094356;28;19919;-29
2023/02/02 03:56:34;;;;;;;;;;;7.80;92.10;;;;;;5094453;28;19908;-29
2023/02/02 03:58:59;;;;;;;;;;;7.80;92.10;;;;;;5094347;28;19908;-30
2023/02/02 04:01:27;;;;;;;;;;;7.90;92.20;;;;;;5094355;28;19908;-29
2023/02/02 04:03:53;;;;;;;;;;;7.90;92.10;;;;;;5094098;28;19912;-33
2023/02/02 04:06:19;;;;;;;;;;;7.90;92.10;;;;;;5093971;28;19909;-29
2023/02/02 04:08:45;;;;;;;;;;;7.90;92.10;;;;;;5094138;28;19969;-34
2023/02/02 04:11:10;;;;;;;;;;;7.90;92.20;;;;;;5094421;28;19955;-32
2023/02/02 04:13:36;;;;;;;;;;;7.90;92.20;;;;;;5094182;28;19908;-33
2023/02/02 04:16:01;;;;;;;;;;;7.90;92.10;;;;;;5093924;28;19915;-34
2023/02/02 04:18:27;;;;;;;;;;;7.90;92.10;;;;;;5093952;28;19935;-33
2023/02/02 04:20:59;;;;;;;;;;;7.90;92.20;;;;;;5093807;28;19908;-30
2023/02/02 04:23:24;;;;;;;;;;;7.90;92.20;;;;;;5093742;28;19962;-31
2023/02/02 04:25:50;;;;;;;;;;;7.90;92.20;;;;;;5093872;28;19908;-33
2023/02/02 04:28:16;;;;;;;;;;;7.90;92.10;;;;;;5092438;28;19909;-37
2023/02/02 04:30:41;;;;;;;;;;;7.90;92.10;;;;;;5093816;28;19908;-27
2023/02/02 04:33:07;;;;;;;;;;;8.00;92.10;;;;;;5093584;28;20356;-32
2023/02/02 04:35:32;;;;;;;;;;;8.00;92.10;;;;;;5093608;28;19908;-29
2023/02/02 04:37:58;;;;;;;;;;;8.00;92.10;;;;;;5093467;28;19908;-33
2023/02/02 04:40:24;;;;;;;;;;;8.00;92.10;;;;;;5093406;28;19908;-31
2023/02/02 04:42:50;;;;;;;;;;;8.00;92.00;;;;;;5093319;28;19961;-31
2023/02/02 04:45:15;;;;;;;;;;;8.00;92.00;;;;;;5093457;28;19912;-30
2023/02/02 04:47:41;;;;;;;;;;;8.00;92.00;;;;;;5093445;28;20348;-32
2023/02/02 04:50:06;;;;;;;;;;;8.00;92.00;;;;;;5093417;28;20027;-38
2023/02/02 04:52:32;;;;;;;;;;;8.00;92.00;;;;;;5093425;28;19915;-30
2023/02/02 04:54:57;;;;;;;;;;;8.00;92.00;;;;;;5093361;28;19916;-32
2023/02/02 04:57:23;;;;;;;;;;;8.10;92.00;;;;;;5093273;28;19995;-31
2023/02/02 04:59:48;;;;;;;;;;;8.10;92.00;;;;;;5093167;28;19908;-29
2023/02/02 05:02:14;;;;;;;;;;;8.10;91.90;;;;;;5091729;28;19908;-33
2023/02/02 05:04:39;;;;;;;;;;;8.10;91.90;;;;;;5093149;28;19915;-30
2023/02/02 05:07:05;;;;;;;;;;;8.10;91.90;;;;;;5093425;28;19915;-31
2023/02/02 05:09:30;;;;;;;;;;;8.10;91.90;;;;;;5092995;28;19908;-34
2023/02/02 05:11:56;;;;;;;;;;;8.10;91.80;;;;;;5092913;28;19965;-36
2023/02/02 05:14:21;;;;;;;;;;;8.10;91.80;;;;;;5092881;28;19908;-30
2023/02/02 05:16:48;;;;;;;;;;;8.10;91.80;;;;;;5092842;28;20383;-31
2023/02/02 05:19:15;;;;;;;;;;;8.20;91.80;;;;;;5092276;28;20375;-30
2023/02/02 05:21:43;;;;;;;;;;;8.10;91.80;;;;;;5092877;28;19934;-29
2023/02/02 05:24:09;;;;;;;;;;;8.10;91.80;;;;;;5092790;28;19931;-31
2023/02/02 05:26:34;;;;;;;;;;;8.10;91.80;;;;;;5092618;28;20417;-35
2023/02/02 05:29:00;;;;;;;;;;;8.20;91.80;;;;;;5092617;28;19954;-35
2023/02/02 05:31:25;;;;;;;;;;;8.20;91.80;;;;;;5092600;28;19915;-30
2023/02/02 05:33:51;;;;;;;;;;;8.10;91.70;;;;;;5092534;28;19987;-29
2023/02/02 05:36:16;;;;;;;;;;;8.20;91.70;;;;;;5092441;28;19908;-32
2023/02/02 05:38:42;;;;;;;;;;;8.20;91.70;;;;;;5091465;28;19908;-34
2023/02/02 05:41:07;;;;;;;;;;;8.20;91.70;;;;;;5092552;28;19908;-29
2023/02/02 05:43:33;;;;;;;;;;;8.20;91.70;;;;;;5092358;28;20311;-31
2023/02/02 05:45:58;;;;;;;;;;;8.20;91.60;;;;;;5092593;28;19908;-39
2023/02/02 05:48:24;;;;;;;;;;;8.20;91.60;;;;;;5092339;28;20250;-33
2023/02/02 05:50:58;;;;;;;;;;;8.20;91.60;;;;;;5092245;28;19915;-28
2023/02/02 05:53:24;;;;;;;;;;;8.20;91.70;;;;;;5092216;28;19951;-31
2023/02/02 05:55:49;;;;;;;;;;;8.20;91.60;;;;;;5092283;28;19909;-28
2023/02/02 05:58:15;;;;;;;;;;;8.20;91.60;;;;;;5092137;28;19908;-33
2023/02/02 06:00:41;;;;;;;;;;;8.20;91.60;;;;;;5092535;28;19995;-28
2023/02/02 06:03:06;;;;;;;;;;;8.30;91.60;;;;;;5091928;28;20011;-29
2023/02/02 06:05:32;;;;;;;;;;;8.20;91.60;;;;;;5092049;28;20280;-31
2023/02/02 06:07:57;;;;;;;;;;;8.30;91.60;;;;;;5092255;28;19912;-29
2023/02/02 06:10:23;;;;;;;;;;;8.20;91.50;;;;;;5092123;28;20275;-31
2023/02/02 06:12:48;;;;;;;;;;;8.30;91.60;;;;;;5091925;28;19908;-30
2023/02/02 06:15:13;;;;;;;;;;;8.30;91.60;;;;;;5092004;28;19950;-30
2023/02/02 06:17:39;;;;;;;;;;;8.30;91.60;;;;;;5091905;28;19908;-30
2023/02/02 06:20:05;;;;;;;;;;;8.30;91.60;;;;;;5091917;28;20320;-35
2023/02/02 06:22:31;;;;;;;;;;;8.30;91.60;;;;;;5091781;28;19928;-38
2023/02/02 06:24:57;;;;;;;;;;;8.30;91.60;;;;;;5091934;28;19909;-29
2023/02/02 06:27:23;;;;;;;;;;;8.20;91.60;;;;;;5090957;28;19912;-32
2023/02/02 06:29:48;;;;;;;;;;;8.30;91.70;;;;;;5091851;28;20121;-30
2023/02/02 06:32:14;;;;;;;;;;;8.30;91.70;;;;;;5096339;28;19916;-30
2023/02/02 06:34:39;;;;;;;;;;;8.30;91.70;;;;;;5095985;28;19908;-28
2023/02/02 06:37:05;;;;;;;;;;;8.20;91.70;;;;;;5095739;28;20360;-29
2023/02/02 06:39:31;;;;;;;;;;;8.20;91.70;;;;;;5095802;28;19908;-34
2023/02/02 06:41:56;;;;;;;;;;;8.20;91.80;;;;;;5095926;28;19909;-31
2023/02/02 06:44:21;;;;;;;;;;;8.20;91.80;;;;;;5095838;28;19961;-28
2023/02/02 06:46:47;;;;;;;;;;;8.20;91.80;;;;;;5095709;28;19918;-44
2023/02/02 06:49:12;;;;;;;;;;;8.20;91.90;;;;;;5095997;28;20410;-28
2023/02/02 06:51:38;;;;;;;;;;;8.20;91.90;;;;;;5095957;28;19908;-29
2023/02/02 06:54:03;;;;;;;;;;;8.20;91.90;;;;;;5096200;28;19908;-31
2023/02/02 06:56:29;;;;;;;;;;;8.20;92.00;;;;;;5095870;28;19951;-31
2023/02/02 06:58:54;;;;;;;;;;;8.20;92.00;;;;;;5095548;28;20345;-37
2023/02/02 07:01:20;;;;;;;;;;;8.20;92.00;;;;;;5095539;28;19908;-32
2023/02/02 07:03:49;;;;;;;;;;;8.20;92.10;;;;;;5095379;28;19962;-35
2023/02/02 07:06:19;;;;;;;;;;;8.20;92.10;;;;;;5095746;28;19917;-29
2023/02/02 07:08:46;;;;;;;;;;;8.10;92.20;;;;;;5095631;28;19916;-28
2023/02/02 07:11:11;;;;;;;;;;;8.10;92.10;;;;;;5095607;28;19914;-29
2023/02/02 07:13:37;;;;;;;;;;;8.10;92.30;;;;;;5095336;28;19912;-31
2023/02/02 07:16:03;;;;;;;;;;;8.10;92.20;;;;;;5095420;28;20014;-28
2023/02/02 07:18:29;;;;;;;;;;;8.10;92.40;;;;;;5095197;28;19916;-31
2023/02/02 07:20:57;;;;;;;;;;;8.10;92.40;;;;;;5095500;28;20237;-32
2023/02/02 07:23:22;;;;;;;;;;;8.10;92.40;;;;;;5095052;28;19921;-31
2023/02/02 07:25:48;;;;;;;;;;;8.10;92.40;;;;;;5095160;28;19934;-29
2023/02/02 07:28:13;;;;;;;;;;;8.10;92.40;;;;;;5095070;28;19927;-34
2023/02/02 07:30:39;;;;;;;;;;;8.10;92.40;;;;;;5094836;28;20271;-31
2023/02/02 07:33:04;;;;;;;;;;;8.10;92.40;;;;;;5095111;28;19908;-30
2023/02/02 07:35:29;;;;;;;;;;;8.10;92.50;;;;;;5094820;28;19992;-28
2023/02/02 07:37:55;;;;;;;;;;;8.10;92.50;;;;;;5094731;28;19908;-29
2023/02/02 07:40:20;;;;;;;;;;;8.10;92.50;;;;;;5094821;28;20050;-30
2023/02/02 07:42:47;;;;;;;;;;;8.00;92.50;;;;;;5093862;28;19912;-35
2023/02/02 07:45:13;;;;;;;;;;;8.10;92.50;;;;;;5094605;28;19995;-29
2023/02/02 07:47:38;;;;;;;;;;;8.10;92.60;;;;;;5094890;28;20010;-29
2023/02/02 07:50:04;;;;;;;;;;;8.00;92.60;;;;;;5094626;28;19908;-31
2023/02/02 07:52:29;;;;;;;;;;;8.10;92.70;;;;;;5094917;28;19909;-30
2023/02/02 07:54:55;;;;;;;;;;;8.10;92.70;;;;;;5093028;28;20257;-29
2023/02/02 07:57:20;;;;;;;;;;;8.00;92.60;;;;;;5094565;28;19908;-31
2023/02/02 07:59:46;;;;;;;;;;;8.10;92.70;;;;;;5094337;28;19908;-31
2023/02/02 08:02:11;;;;;;;;;;;8.10;92.90;;;;;;5094277;28;19908;-28
2023/02/02 08:04:37;;;;;;;;;;;8.10;92.70;;;;;;5094089;28;19938;-28
2023/02/02 08:07:02;;;;;;;;;;;8.10;92.70;;;;;;5094288;28;19908;-30
2023/02/02 08:09:28;;;;;;;;;;;8.10;92.70;;;;;;5094485;28;20394;-31
2023/02/02 08:11:53;;;;;;;;;;;8.10;92.70;;;;;;5094082;28;20002;-30
2023/02/02 08:14:19;;;;;;;;;;;8.10;92.80;;;;;;5094305;28;20370;-35
2023/02/02 08:16:44;;;;;;;;;;;8.10;92.80;;;;;;5093987;28;19919;-31
2023/02/02 08:19:10;;;;;;;;;;;8.10;92.80;;;;;;5094074;28;19908;-32
2023/02/02 08:21:35;;;;;;;;;;;8.10;92.90;;;;;;5094224;28;19912;-32
2023/02/02 08:24:01;;;;;;;;;;;8.10;92.90;;;;;;5093621;28;19920;-28
2023/02/02 08:26:28;;;;;;;;;;;8.10;92.90;;;;;;5093714;28;19908;-28
2023/02/02 08:28:54;;;;;;;;;;;8.10;92.90;;;;;;5093968;28;19908;-32
2023/02/02 08:31:21;;;;;;;;;;;8.10;92.90;;;;;;5092534;28;19908;-28
2023/02/02 08:33:47;;;;;;;;;;;8.10;92.90;;;;;;5093634;28;20000;-28
2023/02/02 08:36:14;;;;;;;;;;;8.10;92.90;;;;;;5093652;28;19944;-27
2023/02/02 08:38:39;;;;;;;;;;;8.10;92.90;;;;;;5093694;28;19916;-28
2023/02/02 08:41:06;;;;;;;;;;;8.10;92.90;;;;;;5093822;28;20352;-28
2023/02/02 08:43:31;;;;;;;;;;;8.10;92.90;;;;;;5093716;28;19951;-28
2023/02/02 08:45:57;;;;;;;;;;;8.20;92.90;;;;;;5093409;28;19951;-29
2023/02/02 08:48:22;;;;;;;;;;;8.20;92.90;;;;;;5093754;28;19934;-29
2023/02/02 08:50:55;;;;;;;;;;;8.20;92.90;;;;;;5093295;28;20194;-31
2023/02/02 08:53:21;;;;;;;;;;;8.20;92.90;;;;;;5092668;28;19908;-44
2023/02/02 08:55:46;;;;;;;;;;;8.20;92.90;;;;;;5093579;28;19909;-28
2023/02/02 08:58:12;;;;;;;;;;;8.20;92.80;;;;;;5093204;28;20010;-28
2023/02/02 09:00:38;;;;;;;;;;;8.20;92.80;;;;;;5093421;28;20375;-27
2023/02/02 09:03:03;;;;;;;;;;;8.20;92.70;;;;;;5093008;28;19912;-27
2023/02/02 09:05:29;;;;;;;;;;;8.30;92.70;;;;;;5093066;28;19988;-33
2023/02/02 09:07:54;;;;;;;;;;;8.30;92.70;;;;;;5093263;28;19957;-29
2023/02/02 09:10:20;;;;;;;;;;;8.30;92.60;;;;;;5092757;28;20339;-31
2023/02/02 09:12:45;;;;;;;;;;;8.30;92.50;;;;;;5093187;28;19912;-30
2023/02/02 09:15:11;;;;;;;;;;;8.30;92.50;;;;;;5092922;28;20003;-28
2023/02/02 09:17:37;;;;;;;;;;;8.40;92.50;;;;;;5093098;28;20276;-32
2023/02/02 09:20:03;;;;;;;;;;;8.40;92.50;;;;;;5091491;28;19915;-28
2023/02/02 09:22:29;;;;;;;;;;;8.40;92.40;;;;;;5092735;28;20450;-36
2023/02/02 09:24:54;;;;;;;;;;;8.50;92.30;;;;;;5092728;28;19940;-35
2023/02/02 09:27:20;;;;;;;;;;;8.50;92.30;;;;;;5091398;28;19931;-30
2023/02/02 09:29:46;;;;;;;;;;;8.50;92.30;;;;;;5092730;28;19934;-30
2023/02/02 09:32:11;;;;;;;;;;;8.50;92.20;;;;;;5092412;28;20245;-30
2023/02/02 09:34:36;;;;;;;;;;;8.60;92.20;;;;;;5092699;28;19920;-27
2023/02/02 09:37:02;;;;;;;;;;;8.60;92.00;;;;;;5092406;28;19909;-31
2023/02/02 09:39:27;;;;;;;;;;;8.60;92.00;;;;;;5092622;28;19919;-28
2023/02/02 09:42:16;;;;;;;;;;;8.60;92.00;;;;;;5092374;28;19908;-30
2023/02/02 09:45:00;;;;;;;;;;;8.60;91.90;;;;;;5086366;28;19912;-27
2023/02/02 09:47:29;;;;;;;;;;;8.70;91.90;;;;;;5090945;28;19908;-28
2023/02/02 09:50:02;;;;;;;;;;;8.70;91.80;;;;;;5092391;28;19958;-29
2023/02/02 09:52:42;;;;;;;;;;;8.70;91.70;;;;;;5092258;28;19923;-28
2023/02/02 09:55:14;;;;;;;;;;;8.70;91.70;;;;;;5092479;28;20398;-29
2023/02/02 09:57:50;;;;;;;;;;;8.70;91.70;;;;;;5092512;28;19989;-29
2023/02/02 10:00:26;;;;;;;;;;;8.70;91.60;;;;;;5092361;28;19919;-28
2023/02/02 10:02:55;;;;;;;;;;;8.80;91.50;;;;;;5092068;28;19912;-28
2023/02/02 10:05:23;;;;;;;;;;;8.80;91.50;;;;;;5091810;28;19908;-31
2023/02/02 10:07:50;;;;;;;;;;;8.80;91.80;;;;;;5092154;28;19909;-31
2023/02/02 10:10:15;;;;;;;;;;;8.80;91.50;;;;;;5092070;28;19908;-31
2023/02/02 10:12:46;;;;;;;;;;;8.80;91.40;;;;;;5092034;28;20352;-29
2023/02/02 10:15:32;;;;;;;;;;;8.80;91.30;;;;;;5091998;28;19953;-29
2023/02/02 10:18:02;;;;;;;;;;;8.80;91.30;;;;;;5092233;28;19912;-32
2023/02/02 10:20:46;;;;;;;;;;;8.90;91.20;;;;;;5092069;28;19912;-28
2023/02/02 10:23:17;;;;;;;;;;;8.90;91.30;;;;;;5091756;28;20375;-39
2023/02/02 10:25:48;;;;;;;;;;;8.90;91.10;;;;;;5092510;28;19958;-28
2023/02/02 10:28:18;;;;;;;;;;;8.90;91.20;;;;;;5091843;28;19908;-29
2023/02/02 10:30:44;;;;;;;;;;;8.90;91.10;;;;;;5092082;28;19908;-28
2023/02/02 10:33:19;;;;;;;;;;;8.90;91.00;;;;;;5091854;28;19909;-29
2023/02/02 10:35:48;;;;;;;;;;;8.90;91.00;;;;;;5091776;28;19908;-32
2023/02/02 10:38:37;;;;;;;;;;;8.90;91.00;;;;;;5091737;28;19914;-28
2023/02/02 10:41:13;;;;;;;;;;;9.00;91.10;;;;;;5085888;28;19912;-31
2023/02/02 10:43:48;;;;;;;;;;;8.90;91.10;;;;;;5091618;28;19916;-31
2023/02/02 10:46:23;;;;;;;;;;;9.00;91.10;;;;;;5092089;28;19908;-30
2023/02/02 10:48:49;;;;;;;;;;;9.00;91.00;;;;;;5091693;28;19934;-31
2023/02/02 10:51:26;;;;;;;;;;;9.00;91.00;;;;;;5091674;28;20270;-29
2023/02/02 10:53:54;;;;;;;;;;;9.00;91.00;;;;;;5091776;28;19959;-29
2023/02/02 10:56:27;;;;;;;;;;;9.00;91.00;;;;;;5091883;28;19938;-29
2023/02/02 10:58:55;;;;;;;;;;;9.00;91.00;;;;;;5091618;28;19908;-32
2023/02/02 11:01:21;;;;;;;;;;;9.00;91.00;;;;;;5091343;28;19908;-31
2023/02/02 11:03:47;;;;;;;;;;;9.00;91.00;;;;;;5091826;28;20522;-34
2023/02/02 11:09:02;;;;;;;;;;;9.10;91.00;;;;;;5091664;28;19919;-30
2023/02/02 11:11:28;;;;;;;;;;;9.10;91.00;;;;;;5091696;28;20270;-29
2023/02/02 11:14:00;;;;;;;;;;;9.10;90.90;;;;;;5091395;28;19908;-28
2023/02/02 11:16:27;;;;;;;;;;;9.10;91.00;;;;;;5092725;28;20335;-34
2023/02/02 11:18:53;;;;;;;;;;;9.20;90.90;;;;;;5095280;28;19908;-30
2023/02/02 11:21:30;;;;;;;;;;;9.10;90.90;;;;;;5093701;28;20007;-33
2023/02/02 11:23:58;;;;;;;;;;;9.10;90.90;;;;;;5094856;28;19928;-30
2023/02/02 11:26:23;;;;;;;;;;;9.20;90.90;;;;;;5095091;28;19908;-29
2023/02/02 11:28:50;;;;;;;;;;;9.20;90.90;;;;;;5094894;28;20263;-29
2023/02/02 11:31:35;;;;;;;;;;;9.20;90.90;;;;;;5095462;28;20370;-33
2023/02/02 11:34:08;;;;;;;;;;;9.10;90.90;;;;;;5095058;28;20425;-28
2023/02/02 11:36:34;;;;;;;;;;;9.10;90.90;;;;;;5094646;28;19914;-29
2023/02/02 11:39:18;;;;;;;;;;;9.10;91.00;;;;;;5094501;28;19995;-33
2023/02/02 11:41:44;;;;;;;;;;;9.20;91.00;;;;;;5094982;28;19907;-29
2023/02/02 11:44:24;;;;;;;;;;;9.10;91.00;;;;;;5094569;28;19918;-30
2023/02/02 11:46:50;;;;;;;;;;;9.20;91.00;;;;;;5093252;28;20332;-36
2023/02/02 11:49:17;;;;;;;;;;;9.10;91.00;;;;;;5094923;28;20267;-32
2023/02/02 11:51:54;;;;;;;;;;;9.10;91.00;;;;;;5094934;28;19915;-29
2023/02/02 11:54:24;;;;;;;;;;;9.20;91.00;;;;;;5094458;28;19916;-29
2023/02/02 11:56:51;;;;;;;;;;;9.10;90.90;;;;;;5094380;28;19912;-31
2023/02/02 11:59:31;;;;;;;;;;;9.20;91.00;;;;;;5094686;28;20219;-31
2023/02/02 12:02:11;;;;;;;;;;;9.10;90.90;;;;;;5094610;28;19915;-30
2023/02/02 12:04:37;;;;;;;;;;;9.10;90.90;;;;;;5094394;28;19912;-31
2023/02/02 12:07:22;;;;;;;;;;;9.10;90.90;;;;;;5094176;28;20424;-34
2023/02/02 12:09:49;;;;;;;;;;;9.10;90.90;;;;;;5094245;28;19925;-32
2023/02/02 12:12:23;;;;;;;;;;;9.10;90.90;;;;;;5094421;28;20404;-28
2023/02/02 12:15:00;;;;;;;;;;;9.10;90.90;;;;;;5094129;28;19915;-33
2023/02/02 12:17:26;;;;;;;;;;;9.10;90.90;;;;;;5094393;28;20320;-28
2023/02/02 12:19:51;;;;;;;;;;;9.10;90.80;;;;;;5094141;28;19942;-32
2023/02/02 12:22:17;;;;;;;;;;;9.10;90.80;;;;;;5094052;28;19913;-31
2023/02/02 12:25:01;;;;;;;;;;;9.20;90.90;;;;;;5093735;28;19916;-28
2023/02/02 12:27:40;;;;;;;;;;;9.20;90.90;;;;;;5093830;28;19908;-29
2023/02/02 12:30:06;;;;;;;;;;;9.20;90.90;;;;;;5093795;28;19914;-31
2023/02/02 12:32:37;;;;;;;;;;;9.20;90.80;;;;;;5093820;28;19994;-28
2023/02/02 12:35:09;;;;;;;;;;;9.20;90.80;;;;;;5093759;28;19934;-29
2023/02/02 12:37:52;;;;;;;;;;;9.20;90.80;;;;;;5093708;28;19908;-31
2023/02/02 12:40:27;;;;;;;;;;;9.20;90.80;;;;;;5093971;28;19965;-29
2023/02/02 12:43:11;;;;;;;;;;;9.20;90.80;;;;;;5093408;28;19912;-27
2023/02/02 12:45:55;;;;;;;;;;;9.20;90.80;;;;;;5093971;28;19908;-30
2023/02/02 12:48:29;;;;;;;;;;;9.20;90.80;;;;;;5093528;28;19908;-31
2023/02/02 12:51:02;;;;;;;;;;;9.10;90.70;;;;;;5091842;28;19908;-28
2023/02/02 12:53:34;;;;;;;;;;;9.20;90.80;;;;;;5093160;28;20061;-31
2023/02/02 12:56:28;;;;;;;;;;;9.20;90.80;;;;;;5093021;28;20367;-31
2023/02/02 12:59:03;;;;;;;;;;;9.10;90.70;;;;;;5083622;28;19922;-30
2023/02/02 13:01:28;;;;;;;;;;;9.10;90.80;;;;;;5093455;28;20007;-32
2023/02/02 13:04:10;;;;;;;;;;;9.10;90.80;;;;;;5093556;28;20011;-34
2023/02/02 13:06:52;;;;;;;;;;;9.10;90.80;;;;;;5093656;28;20028;-30
2023/02/02 13:09:24;;;;;;;;;;;9.10;90.80;;;;;;5093408;28;19995;-30
2023/02/02 13:11:54;;;;;;;;;;;9.10;90.90;;;;;;5091843;28;19908;-31
2023/02/02 13:14:23;;;;;;;;;;;9.00;90.90;;;;;;5093235;28;19939;-30
2023/02/02 13:16:50;;;;;;;;;;;9.00;90.90;;;;;;5093120;28;19908;-30
2023/02/02 13:19:23;;;;;;;;;;;9.00;90.90;;;;;;5093209;28;20006;-27
2023/02/02 13:21:50;;;;;;;;;;;9.00;91.00;;;;;;5092888;28;19908;-32
2023/02/02 13:24:20;;;;;;;;;;;8.90;91.00;;;;;;5093062;28;19916;-30
2023/02/02 13:26:46;;;;;;;;;;;8.90;91.10;;;;;;5093242;28;19934;-38
2023/02/02 13:29:11;;;;;;;;;;;8.90;91.10;;;;;;5093109;28;19908;-33
2023/02/02 13:31:42;;;;;;;;;;;8.90;91.20;;;;;;5092443;28;21549;-33
2023/02/02 13:34:16;;;;;;;;;;;8.90;91.20;;;;;;5093458;28;19912;-35
2023/02/02 13:36:43;;;;;;;;;;;8.90;91.30;;;;;;5093363;28;20240;-32
2023/02/02 13:39:13;;;;;;;;;;;8.90;91.40;;;;;;5092312;28;20418;-31
2023/02/02 13:41:39;;;;;;;;;;;8.80;91.40;;;;;;5092887;28;19964;-31
2023/02/02 13:44:07;;;;;;;;;;;8.80;91.40;;;;;;5092690;28;19912;-39
2023/02/02 13:46:52;;;;;;;;;;;8.80;91.50;;;;;;5093152;28;19947;-31
2023/02/02 13:49:24;;;;;;;;;;;8.80;91.50;;;;;;5092724;28;19912;-35
2023/02/02 13:51:49;;;;;;;;;;;8.80;91.60;;;;;;5092439;28;20282;-28
2023/02/02 13:54:33;;;;;;;;;;;8.80;91.70;;;;;;5092433;28;19908;-31
2023/02/02 13:57:20;;;;;;;;;;;8.80;91.70;;;;;;5092316;28;19912;-40
2023/02/02 14:00:00;;;;;;;;;;;8.80;91.70;;;;;;5090930;28;19915;-30
2023/02/02 14:02:29;;;;;;;;;;;8.80;91.70;;;;;;5092602;28;20367;-27
2023/02/02 14:04:56;;;;;;;;;;;8.80;91.80;;;;;;5092234;28;19918;-38
2023/02/02 14:07:40;;;;;;;;;;;8.70;91.80;;;;;;5092241;28;20393;-28
2023/02/02 14:10:06;;;;;;;;;;;8.70;91.80;;;;;;5092191;28;19908;-28
2023/02/02 14:12:33;;;;;;;;;;;8.70;91.80;;;;;;5091951;28;19915;-40
2023/02/02 14:14:59;;;;;;;;;;;8.70;91.90;;;;;;5092122;28;19908;-29
2023/02/02 14:17:24;;;;;;;;;;;8.80;91.90;;;;;;5092276;28;19999;-26
2023/02/02 14:19:50;;;;;;;;;;;8.80;91.90;;;;;;5092154;28;19914;-30
2023/02/02 14:22:17;;;;;;;;;;;8.80;92.00;;;;;;5091984;28;19963;-29
2023/02/02 14:24:50;;;;;;;;;;;8.80;92.00;;;;;;5091878;28;19923;-29
2023/02/02 14:27:15;;;;;;;;;;;8.80;92.00;;;;;;5090614;28;19912;-26
2023/02/02 14:29:44;;;;;;;;;;;8.80;92.10;;;;;;5092349;28;19912;-32
2023/02/02 14:32:28;;;;;;;;;;;8.80;92.10;;;;;;5092588;28;19951;-32
2023/02/02 14:34:55;;;;;;;;;;;8.80;92.10;;;;;;5092640;28;20271;-32
2023/02/02 14:37:23;;;;;;;;;;;8.80;92.10;;;;;;5092271;28;19966;-30
2023/02/02 14:40:16;;;;;;;;;;;8.80;92.10;;;;;;5092527;28;19973;-33
2023/02/02 14:45:33;;;;;;;;;;;8.80;92.10;;;;;;5092413;28;20015;-29
2023/02/02 14:48:08;;;;;;;;;;;8.80;92.10;;;;;;5092200;28;19918;-30
2023/02/02 14:50:37;;;;;;;;;;;8.80;92.20;;;;;;5092333;28;19965;-30
2023/02/02 14:53:12;;;;;;;;;;;8.80;92.10;;;;;;5096048;28;19918;-33
2023/02/02 14:55:50;;;;;;;;;;;8.80;92.20;;;;;;5096697;28;20050;-31